^^
Saratoga-Weather Station Historical Data
Daily Summary for June 27, 2021 Units:  Metric    English   Both
Daily Weekly Monthly Yearly Custom
  High: Low: Average:
Temperature: 13.9 °C 7.9 °C 10.2 °C
Dew Point: 11.3 °C 7.1 °C 9.1 °C
Humidity: 97% 83% 93%
Wind Speed: 7.9km/h 0km/h 0.7km/h
Wind Gust: 8km/h - -
Wind- - ESE
Pressure: 1026.1 hPa 1022.0 hPa -
Precipitation: 0.0 mm    
Historical Graphs
 
 
Tabular Data for June 27, 2021
Time Temperature Dew Point Pressure Wind Wind Speed Wind Gust Humidity Rainfall Rate (Hourly) solar
00:00 10 °C 9.2 °C 1025.1 hPa East 3.2 km/h 6.4 km/h 95% 0.0 mm 0 W/m2
00:05 10.1 °C 9.3 °C 1025.1 hPa NE 1.4 km/h 4.8 km/h 95% 0.0 mm 0 W/m2
00:10 10.1 °C 9.3 °C 1025.1 hPa ESE 3.2 km/h 4.8 km/h 95% 0.0 mm 0 W/m2
00:15 10.1 °C 9.3 °C 1025.1 hPa Calm   1.6 km/h 95% 0.0 mm 0 W/m2
00:20 10 °C 9.2 °C 1025.1 hPa Calm     95% 0.0 mm 0 W/m2
00:25 9.9 °C 9.1 °C 1025.1 hPa Calm     95% 0.0 mm 0 W/m2
00:30 9.9 °C 9.1 °C 1025.1 hPa Calm     95% 0.0 mm 0 W/m2
00:35 9.9 °C 9.1 °C 1025.1 hPa Calm     95% 0.0 mm 0 W/m2
00:40 9.9 °C 9.1 °C 1025.1 hPa Calm     95% 0.0 mm 0 W/m2
00:45 10 °C 9.2 °C 1025.1 hPa Calm   3.2 km/h 95% 0.0 mm 0 W/m2
00:50 10.1 °C 9.3 °C 1025.1 hPa Calm   4.8 km/h 95% 0.0 mm 0 W/m2
00:55 10.1 °C 9.5 °C 1025.1 hPa West 3.2 km/h 3.2 km/h 96% 0.0 mm 0 W/m2
01:00 10.2 °C 9.4 °C 1025.1 hPa Calm     95% 0.0 mm 0 W/m2
01:05 10.2 °C 9.4 °C 1025.1 hPa Calm   4.8 km/h 95% 0.0 mm 0 W/m2
01:10 10.2 °C 9.4 °C 1025.1 hPa Calm     95% 0.0 mm 0 W/m2
01:15 10.2 °C 9.4 °C 1025.1 hPa Calm   6.4 km/h 95% 0.0 mm 0 W/m2
01:20 10.3 °C 9.5 °C 1025.1 hPa Calm     95% 0.0 mm 0 W/m2
01:25 10.3 °C 9.5 °C 1025.1 hPa NW 4.7 km/h 6.4 km/h 95% 0.0 mm 0 W/m2
01:30 10.3 °C 9.5 °C 1025.1 hPa West 6.4 km/h 6.4 km/h 95% 0.0 mm 0 W/m2
01:35 10.4 °C 9.6 °C 1025.1 hPa Calm   4.8 km/h 95% 0.0 mm 0 W/m2
01:40 10.5 °C 9.7 °C 1025.1 hPa WSW 7.9 km/h 8 km/h 95% 0.0 mm 0 W/m2
01:45 10.6 °C 9.8 °C 1025.1 hPa Calm   3.2 km/h 95% 0.0 mm 0 W/m2
01:50 10.7 °C 9.9 °C 1025.1 hPa West 3.2 km/h 4.8 km/h 95% 0.0 mm 0 W/m2
01:55 10.8 °C 9.9 °C 1025.1 hPa SW 1.4 km/h 4.8 km/h 94% 0.0 mm 0 W/m2
02:01 10.8 °C 9.9 °C 1025.1 hPa SW 4.7 km/h 6.4 km/h 94% 0.0 mm 0 W/m2
02:06 10.9 °C 10 °C 1025.1 hPa Calm   3.2 km/h 94% 0.0 mm 0 W/m2
02:11 10.9 °C 9.8 °C 1025.1 hPa Calm   6.4 km/h 93% 0.0 mm 0 W/m2
02:16 10.9 °C 9.8 °C 1025.1 hPa Calm     93% 0.0 mm 0 W/m2
02:21 10.8 °C 9.7 °C 1025.1 hPa SW 1.4 km/h 1.6 km/h 93% 0.0 mm 0 W/m2
02:26 10.8 °C 9.7 °C 1025.1 hPa SW 1.4 km/h 3.2 km/h 93% 0.0 mm 0 W/m2
02:31 10.7 °C 9.6 °C 1025.1 hPa Calm     93% 0.0 mm 0 W/m2
02:36 10.6 °C 9.5 °C 1025.1 hPa Calm   3.2 km/h 93% 0.0 mm 0 W/m2
02:41 10.4 °C 9.2 °C 1025.1 hPa Calm     92% 0.0 mm 0 W/m2
02:46 10.2 °C 9 °C 1025.1 hPa Calm   1.6 km/h 92% 0.0 mm 0 W/m2
02:51 10 °C 8.8 °C 1025.1 hPa Calm     92% 0.0 mm 0 W/m2
02:56 9.8 °C 8.6 °C 1025.1 hPa Calm     92% 0.0 mm 0 W/m2
03:01 9.7 °C 8.6 °C 1025.1 hPa Calm     93% 0.0 mm 0 W/m2
03:06 9.7 °C 8.6 °C 1025.1 hPa Calm   4.8 km/h 93% 0.0 mm 0 W/m2
03:11 9.7 °C 8.8 °C 1025.1 hPa Calm   3.2 km/h 94% 0.0 mm 0 W/m2
03:16 9.7 °C 8.8 °C 1025.1 hPa Calm   3.2 km/h 94% 0.0 mm 0 W/m2
03:21 9.7 °C 8.8 °C 1025.1 hPa NNW 3.2 km/h 3.2 km/h 94% 0.0 mm 0 W/m2
03:26 9.7 °C 8.8 °C 1025.1 hPa Calm     94% 0.0 mm 0 W/m2
03:31 9.7 °C 8.8 °C 1025.1 hPa Calm     94% 0.0 mm 0 W/m2
03:36 9.7 °C 8.8 °C 1025.1 hPa Calm     94% 0.0 mm 0 W/m2
03:41 9.6 °C 8.7 °C 1025.1 hPa Calm   1.6 km/h 94% 0.0 mm 0 W/m2
03:46 9.6 °C 8.7 °C 1025.1 hPa Calm     94% 0.0 mm 0 W/m2
03:51 9.5 °C 8.6 °C 1025.1 hPa Calm     94% 0.0 mm 0 W/m2
03:56 9.4 °C 8.5 °C 1024.7 hPa Calm     94% 0.0 mm 0 W/m2
04:01 9.3 °C 8.4 °C 1024.7 hPa Calm     94% 0.0 mm 0 W/m2
04:06 9.2 °C 8.3 °C 1024.7 hPa Calm     94% 0.0 mm 0 W/m2
04:11 9.1 °C 8.2 °C 1024.7 hPa Calm     94% 0.0 mm 0 W/m2
04:16 8.9 °C 8 °C 1024.7 hPa Calm     94% 0.0 mm 0 W/m2
04:21 8.8 °C 7.9 °C 1024.7 hPa Calm     94% 0.0 mm 0 W/m2
04:26 8.6 °C 7.7 °C 1024.7 hPa Calm     94% 0.0 mm 0 W/m2
04:31 8.6 °C 7.7 °C 1024.7 hPa Calm     94% 0.0 mm 0 W/m2
04:36 8.4 °C 7.6 °C 1024.7 hPa Calm     95% 0.0 mm 0 W/m2
04:41 8.4 °C 7.6 °C 1024.7 hPa Calm     95% 0.0 mm 0 W/m2
04:46 8.3 °C 7.5 °C 1024.7 hPa Calm     95% 0.0 mm 0 W/m2
04:51 8.3 °C 7.5 °C 1024.7 hPa Calm     95% 0.0 mm 0 W/m2
04:56 8.3 °C 7.5 °C 1024.7 hPa Calm     95% 0.0 mm 0 W/m2
05:01 8.3 °C 7.5 °C 1024.7 hPa Calm     95% 0.0 mm 0 W/m2
05:06 8.3 °C 7.5 °C 1024.7 hPa Calm     95% 0.0 mm 0 W/m2
05:11 8.2 °C 7.4 °C 1024.7 hPa Calm     95% 0.0 mm 0 W/m2
05:16 8.2 °C 7.4 °C 1024.7 hPa Calm     95% 0.0 mm 0 W/m2
05:21 8.2 °C 7.4 °C 1024.7 hPa Calm     95% 0.0 mm 0 W/m2
05:27 8.1 °C 7.3 °C 1024.7 hPa Calm     95% 0.0 mm 0 W/m2
05:32 8.1 °C 7.3 °C 1024.7 hPa Calm     95% 0.0 mm 0 W/m2
05:37 8.1 °C 7.3 °C 1024.7 hPa Calm     95% 0.0 mm 0 W/m2
05:42 8 °C 7.2 °C 1024.7 hPa Calm     95% 0.0 mm 0 W/m2
05:47 7.9 °C 7.1 °C 1024.7 hPa Calm     95% 0.0 mm 0 W/m2
05:52 7.9 °C 7.1 °C 1025.1 hPa Calm     95% 0.0 mm 0 W/m2
05:57 7.9 °C 7.3 °C 1025.1 hPa Calm     96% 0.0 mm 0 W/m2
06:02 8 °C 7.4 °C 1025.1 hPa Calm   3.2 km/h 96% 0.0 mm 0 W/m2
06:07 8.1 °C 7.5 °C 1025.1 hPa Calm     96% 0.0 mm 0 W/m2
06:12 8.1 °C 7.5 °C 1025.1 hPa Calm   3.2 km/h 96% 0.0 mm 0 W/m2
06:17 8.3 °C 7.7 °C 1025.1 hPa Calm     96% 0.0 mm 0 W/m2
06:22 8.3 °C 7.7 °C 1025.1 hPa Calm     96% 0.0 mm 0 W/m2
06:27 8.4 °C 7.8 °C 1025.1 hPa Calm     96% 0.0 mm 0 W/m2
06:32 8.5 °C 7.9 °C 1025.1 hPa Calm     96% 0.0 mm 0 W/m2
06:37 8.6 °C 8 °C 1025.1 hPa Calm     96% 0.0 mm 0 W/m2
06:42 8.6 °C 8 °C 1025.1 hPa Calm     96% 0.0 mm 0 W/m2
06:47 8.7 °C 8.1 °C 1025.1 hPa Calm     96% 0.0 mm 0 W/m2
06:52 8.7 °C 8.1 °C 1025.1 hPa Calm     96% 0.0 mm 0 W/m2
06:57 8.7 °C 8.1 °C 1025.1 hPa Calm     96% 0.0 mm 0 W/m2
07:02 8.7 °C 8.1 °C 1025.1 hPa Calm     96% 0.0 mm 0 W/m2
07:07 8.6 °C 8 °C 1025.1 hPa Calm     96% 0.0 mm 0 W/m2
07:12 8.6 °C 8 °C 1025.1 hPa Calm     96% 0.0 mm 0 W/m2
07:17 8.6 °C 8 °C 1025.1 hPa Calm     96% 0.0 mm 0 W/m2
07:22 8.6 °C 8 °C 1025.1 hPa Calm     96% 0.0 mm 0 W/m2
07:27 8.6 °C 8 °C 1025.1 hPa Calm     96% 0.0 mm 0 W/m2
07:32 8.6 °C 8 °C 1025.1 hPa ENE 1.4 km/h 3.2 km/h 96% 0.0 mm 0 W/m2
07:37 8.7 °C 8.3 °C 1025.1 hPa Calm     97% 0.0 mm 0 W/m2
07:42 8.7 °C 8.3 °C 1025.1 hPa Calm   3.2 km/h 97% 0.0 mm 0 W/m2
07:47 8.7 °C 8.3 °C 1025.1 hPa Calm     97% 0.0 mm 0 W/m2
07:52 8.7 °C 8.3 °C 1025.1 hPa Calm     97% 0.0 mm 0 W/m2
07:57 8.7 °C 8.3 °C 1025.1 hPa Calm   1.6 km/h 97% 0.0 mm 0 W/m2
08:02 8.8 °C 8.3 °C 1025.1 hPa ENE 3.2 km/h 3.2 km/h 97% 0.0 mm 0 W/m2
08:07 8.8 °C 8.3 °C 1025.1 hPa Calm     97% 0.0 mm 0 W/m2
08:12 8.8 °C 8.3 °C 1025.1 hPa Calm     97% 0.0 mm 0 W/m2
08:17 8.8 °C 8.3 °C 1025.4 hPa Calm     97% 0.0 mm 0 W/m2
08:22 8.8 °C 8.2 °C 1025.4 hPa Calm     96% 0.0 mm 0 W/m2
08:27 8.8 °C 8.2 °C 1025.1 hPa Calm     96% 0.0 mm 0 W/m2
08:32 8.8 °C 8.2 °C 1025.1 hPa Calm     96% 0.0 mm 5 W/m2
08:37 8.9 °C 8.4 °C 1025.1 hPa Calm     97% 0.0 mm 7 W/m2
08:42 9 °C 8.5 °C 1025.1 hPa Calm   1.6 km/h 97% 0.0 mm 9 W/m2
08:47 9.1 °C 8.6 °C 1025.1 hPa Calm     97% 0.0 mm 11 W/m2
08:52 9.2 °C 8.7 °C 1025.4 hPa Calm   1.6 km/h 97% 0.0 mm 12 W/m2
08:57 9.2 °C 8.7 °C 1025.4 hPa East 3.2 km/h 4.8 km/h 97% 0.0 mm 14 W/m2
09:02 9.1 °C 8.6 °C 1025.4 hPa Calm   1.6 km/h 97% 0.0 mm 16 W/m2
09:07 9.1 °C 8.6 °C 1025.7 hPa Calm     97% 0.0 mm 14 W/m2
09:12 9.1 °C 8.6 °C 1025.7 hPa Calm     97% 0.0 mm 16 W/m2
09:17 9.1 °C 8.6 °C 1025.7 hPa Calm     97% 0.0 mm 16 W/m2
09:22 9.2 °C 8.7 °C 1025.7 hPa Calm     97% 0.0 mm 16 W/m2
09:27 9.2 °C 8.7 °C 1025.7 hPa Calm     97% 0.0 mm 16 W/m2
09:32 9.2 °C 8.7 °C 1025.7 hPa Calm     97% 0.0 mm 19 W/m2
09:37 9.3 °C 8.8 °C 1025.7 hPa East 1.4 km/h 3.2 km/h 97% 0.0 mm 25 W/m2
09:42 9.3 °C 8.8 °C 1025.7 hPa Calm   3.2 km/h 97% 0.0 mm 28 W/m2
09:47 9.4 °C 8.9 °C 1025.7 hPa East 1.4 km/h 3.2 km/h 97% 0.0 mm 30 W/m2
09:52 9.4 °C 8.9 °C 1025.7 hPa East 1.4 km/h 3.2 km/h 97% 0.0 mm 33 W/m2
09:57 9.4 °C 8.9 °C 1026.1 hPa ESE 3.2 km/h 3.2 km/h 97% 0.0 mm 33 W/m2
10:02 9.5 °C 9 °C 1026.1 hPa East 3.2 km/h 4.8 km/h 97% 0.0 mm 37 W/m2
10:07 9.4 °C 8.9 °C 1026.1 hPa East 1.4 km/h 3.2 km/h 97% 0.0 mm 46 W/m2
10:12 9.5 °C 9 °C 1026.1 hPa ESE 1.4 km/h 4.8 km/h 97% 0.0 mm 49 W/m2
10:17 9.5 °C 9 °C 1026.1 hPa ESE 3.2 km/h 3.2 km/h 97% 0.0 mm 54 W/m2
10:22 9.5 °C 8.9 °C 1025.7 hPa ESE 3.2 km/h 4.8 km/h 96% 0.0 mm 56 W/m2
10:27 9.5 °C 8.9 °C 1025.7 hPa East 4.7 km/h 4.8 km/h 96% 0.0 mm 58 W/m2
10:32 9.6 °C 9 °C 1025.7 hPa East 3.2 km/h 4.8 km/h 96% 0.0 mm 56 W/m2
10:37 9.6 °C 9 °C 1025.7 hPa East 3.2 km/h 4.8 km/h 96% 0.0 mm 56 W/m2
10:42 9.7 °C 9.1 °C 1025.7 hPa ESE 3.2 km/h 4.8 km/h 96% 0.0 mm 63 W/m2
10:47 9.7 °C 9.1 °C 1026.1 hPa ESE 3.2 km/h 3.2 km/h 96% 0.0 mm 65 W/m2
10:52 9.8 °C 9.2 °C 1025.7 hPa Calm   3.2 km/h 96% 0.0 mm 72 W/m2
10:57 9.8 °C 9.2 °C 1026.1 hPa ESE 1.4 km/h 3.2 km/h 96% 0.0 mm 63 W/m2
11:02 9.9 °C 9.3 °C 1025.7 hPa ESE 1.4 km/h 4.8 km/h 96% 0.0 mm 58 W/m2
11:07 9.9 °C 9.3 °C 1025.7 hPa Calm   3.2 km/h 96% 0.0 mm 56 W/m2
11:12 10 °C 9.4 °C 1025.7 hPa Calm   4.8 km/h 96% 0.0 mm 67 W/m2
11:17 10.1 °C 9.5 °C 1025.7 hPa ESE 1.4 km/h 3.2 km/h 96% 0.0 mm 67 W/m2
11:22 10.1 °C 9.5 °C 1025.7 hPa Calm   3.2 km/h 96% 0.0 mm 58 W/m2
11:27 10.2 °C 9.6 °C 1025.7 hPa Calm   1.6 km/h 96% 0.0 mm 63 W/m2
11:32 10.3 °C 9.7 °C 1025.7 hPa ESE 1.4 km/h 3.2 km/h 96% 0.0 mm 83 W/m2
11:37 10.3 °C 9.7 °C 1025.7 hPa ESE 1.4 km/h 1.6 km/h 96% 0.0 mm 79 W/m2
11:42 10.4 °C 9.6 °C 1025.7 hPa ESE 3.2 km/h 4.8 km/h 95% 0.0 mm 63 W/m2
11:47 10.4 °C 9.6 °C 1025.7 hPa Calm   3.2 km/h 95% 0.0 mm 70 W/m2
11:52 10.5 °C 9.7 °C 1025.7 hPa Calm   4.8 km/h 95% 0.0 mm 86 W/m2
11:58 10.6 °C 9.8 °C 1025.7 hPa ESE 1.4 km/h 3.2 km/h 95% 0.0 mm 102 W/m2
12:03 10.7 °C 9.9 °C 1025.7 hPa Calm     95% 0.0 mm 95 W/m2
12:08 10.8 °C 10 °C 1025.7 hPa Calm     95% 0.0 mm 100 W/m2
12:13 10.9 °C 10 °C 1025.7 hPa Calm   3.2 km/h 94% 0.0 mm 102 W/m2
12:18 11 °C 10.1 °C 1025.7 hPa Calm   3.2 km/h 94% 0.0 mm 97 W/m2
12:23 11.1 °C 10.2 °C 1025.7 hPa East 1.4 km/h 3.2 km/h 94% 0.0 mm 81 W/m2
12:28 11.2 °C 10.3 °C 1025.7 hPa East 1.4 km/h 1.6 km/h 94% 0.0 mm 97 W/m2
12:33 11.3 °C 10.4 °C 1025.7 hPa Calm   3.2 km/h 94% 0.0 mm 88 W/m2
12:38 11.4 °C 10.3 °C 1025.7 hPa Calm   3.2 km/h 93% 0.0 mm 113 W/m2
12:43 11.4 °C 10.3 °C 1025.7 hPa Calm     93% 0.0 mm 120 W/m2
12:48 11.6 °C 10.5 °C 1025.7 hPa NE 1.4 km/h 3.2 km/h 93% 0.0 mm 113 W/m2
12:53 11.7 °C 10.6 °C 1025.7 hPa Calm   1.6 km/h 93% 0.0 mm 102 W/m2
12:58 11.7 °C 10.4 °C 1025.7 hPa ENE 1.4 km/h 4.8 km/h 92% 0.0 mm 90 W/m2
13:03 11.7 °C 10.4 °C 1025.7 hPa Calm   1.6 km/h 92% 0.0 mm 109 W/m2
13:08 11.8 °C 10.5 °C 1025.7 hPa SE 3.2 km/h 3.2 km/h 92% 0.0 mm 120 W/m2
13:13 11.8 °C 10.5 °C 1025.7 hPa ESE 1.4 km/h 1.6 km/h 92% 0.0 mm 125 W/m2
13:18 11.8 °C 10.5 °C 1025.4 hPa ESE 1.4 km/h 4.8 km/h 92% 0.0 mm 118 W/m2
13:23 11.8 °C 10.5 °C 1025.4 hPa ESE 1.4 km/h 3.2 km/h 92% 0.0 mm 120 W/m2
13:28 11.9 °C 10.5 °C 1025.4 hPa ENE 1.4 km/h 4.8 km/h 91% 0.0 mm 141 W/m2
13:33 11.9 °C 10.5 °C 1025.4 hPa ESE 1.4 km/h 4.8 km/h 91% 0.0 mm 139 W/m2
13:38 12 °C 10.6 °C 1025.4 hPa Calm   3.2 km/h 91% 0.0 mm 153 W/m2
13:43 12.1 °C 10.7 °C 1025.4 hPa Calm   4.8 km/h 91% 0.0 mm 160 W/m2
13:48 12.2 °C 10.8 °C 1025.1 hPa Calm   3.2 km/h 91% 0.0 mm 144 W/m2
13:53 12.3 °C 10.7 °C 1025.1 hPa ESE 3.2 km/h 3.2 km/h 90% 0.0 mm 134 W/m2
13:58 12.3 °C 10.7 °C 1025.1 hPa East 1.4 km/h 3.2 km/h 90% 0.0 mm 142 W/m2
14:03 12.4 °C 10.8 °C 1025.1 hPa East 1.4 km/h 3.2 km/h 90% 0.0 mm 146 W/m2
14:08 12.4 °C 10.8 °C 1025.1 hPa East 3.2 km/h 4.8 km/h 90% 0.0 mm 163 W/m2
14:13 12.6 °C 11 °C 1024.7 hPa East 4.7 km/h 6.4 km/h 90% 0.0 mm 151 W/m2
14:18 12.7 °C 10.9 °C 1024.7 hPa East 3.2 km/h 4.8 km/h 89% 0.0 mm 160 W/m2
14:23 12.7 °C 10.9 °C 1024.7 hPa East 1.4 km/h 4.8 km/h 89% 0.0 mm 171 W/m2
14:28 12.8 °C 10.9 °C 1024.7 hPa East 4.7 km/h 4.8 km/h 88% 0.0 mm 183 W/m2
14:33 12.8 °C 10.9 °C 1024.7 hPa NE 3.2 km/h 6.4 km/h 88% 0.0 mm 169 W/m2
14:38 12.9 °C 10.8 °C 1024.4 hPa ENE 3.2 km/h 4.8 km/h 87% 0.0 mm 176 W/m2
14:43 12.9 °C 10.8 °C 1024.4 hPa East 3.2 km/h 4.8 km/h 87% 0.0 mm 181 W/m2
14:48 13 °C 10.9 °C 1024.4 hPa NE 1.4 km/h 1.6 km/h 87% 0.0 mm 176 W/m2
14:53 13.1 °C 11 °C 1024.4 hPa Calm   3.2 km/h 87% 0.0 mm 167 W/m2
14:58 13.2 °C 10.9 °C 1024.4 hPa Calm   4.8 km/h 86% 0.0 mm 200 W/m2
15:03 13.2 °C 10.9 °C 1024.0 hPa NE 3.2 km/h 4.8 km/h 86% 0.0 mm 128 W/m2
15:08 13.3 °C 11 °C 1024.0 hPa NE 1.4 km/h 4.8 km/h 86% 0.0 mm 125 W/m2
15:13 13.4 °C 10.9 °C 1024.0 hPa Calm   6.4 km/h 85% 0.0 mm 142 W/m2
15:18 13.4 °C 10.9 °C 1024.0 hPa ESE 3.2 km/h 3.2 km/h 85% 0.0 mm 123 W/m2
15:23 13.6 °C 11.1 °C 1024.0 hPa ESE 1.4 km/h 6.4 km/h 85% 0.0 mm 135 W/m2
15:28 13.7 °C 11.2 °C 1024.0 hPa Calm   3.2 km/h 85% 0.0 mm 148 W/m2
15:33 13.8 °C 11.3 °C 1024.0 hPa NE 3.2 km/h 6.4 km/h 85% 0.0 mm 146 W/m2
15:38 13.8 °C 11.1 °C 1024.0 hPa ENE 4.7 km/h 6.4 km/h 84% 0.0 mm 134 W/m2
15:43 13.9 °C 11.2 °C 1024.0 hPa Calm   1.6 km/h 84% 0.0 mm 141 W/m2
15:48 13.9 °C 11.1 °C 1024.0 hPa East 1.4 km/h 4.8 km/h 83% 0.0 mm 142 W/m2
15:53 13.8 °C 11 °C 1024.0 hPa Calm   3.2 km/h 83% 0.0 mm 128 W/m2
15:58 13.8 °C 11 °C 1024.0 hPa Calm   3.2 km/h 83% 0.0 mm 121 W/m2
16:03 13.8 °C 11 °C 1023.7 hPa ENE 1.4 km/h 4.8 km/h 83% 0.0 mm 123 W/m2
16:08 13.7 °C 10.9 °C 1023.7 hPa ENE 1.4 km/h 3.2 km/h 83% 0.0 mm 118 W/m2
16:13 13.7 °C 11 °C 1023.7 hPa NE 1.4 km/h 3.2 km/h 84% 0.0 mm 76 W/m2
16:18 13.7 °C 10.9 °C 1023.7 hPa ENE 1.4 km/h 4.8 km/h 83% 0.0 mm 79 W/m2
16:23 13.7 °C 11 °C 1023.7 hPa ENE 4.7 km/h 6.4 km/h 84% 0.0 mm 69 W/m2
16:28 13.7 °C 10.9 °C 1023.7 hPa Calm   6.4 km/h 83% 0.0 mm 58 W/m2
16:33 13.6 °C 10.8 °C 1023.4 hPa ENE 1.4 km/h 3.2 km/h 83% 0.0 mm 49 W/m2
16:38 13.6 °C 10.8 °C 1023.4 hPa ENE 3.2 km/h 6.4 km/h 83% 0.0 mm 46 W/m2
16:43 13.5 °C 10.8 °C 1023.4 hPa Calm   1.6 km/h 84% 0.0 mm 44 W/m2
16:48 13.4 °C 10.8 °C 1023.4 hPa Calm     84% 0.0 mm 42 W/m2
16:53 13.4 °C 10.8 °C 1023.4 hPa Calm     84% 0.0 mm 42 W/m2
16:58 13.3 °C 10.7 °C 1023.4 hPa Calm   1.6 km/h 84% 0.0 mm 40 W/m2
17:03 13.3 °C 10.8 °C 1023.4 hPa ESE 6.4 km/h 6.4 km/h 85% 0.0 mm 42 W/m2
17:08 13.2 °C 10.7 °C 1023.4 hPa ENE 1.4 km/h 3.2 km/h 85% 0.0 mm 40 W/m2
17:13 13.2 °C 10.7 °C 1023.4 hPa ENE 3.2 km/h 3.2 km/h 85% 0.0 mm 35 W/m2
17:18 13.1 °C 10.6 °C 1023.4 hPa ENE 1.4 km/h 4.8 km/h 85% 0.0 mm 35 W/m2
17:23 13.1 °C 10.6 °C 1023.4 hPa ESE 1.4 km/h 3.2 km/h 85% 0.0 mm 33 W/m2
17:28 13 °C 10.7 °C 1023.4 hPa Calm     86% 0.0 mm 33 W/m2
17:33 12.9 °C 10.6 °C 1023.4 hPa East 1.4 km/h 3.2 km/h 86% 0.0 mm 32 W/m2
17:38 12.8 °C 10.5 °C 1023.4 hPa Calm   1.6 km/h 86% 0.0 mm 30 W/m2
17:43 12.7 °C 10.4 °C 1023.0 hPa Calm   1.6 km/h 86% 0.0 mm 26 W/m2
17:48 12.6 °C 10.5 °C 1023.4 hPa SE 1.4 km/h 3.2 km/h 87% 0.0 mm 23 W/m2
17:53 12.4 °C 10.3 °C 1023.4 hPa Calm   3.2 km/h 87% 0.0 mm 21 W/m2
17:58 12.3 °C 10.2 °C 1023.4 hPa Calm   1.6 km/h 87% 0.0 mm 19 W/m2
18:03 12.2 °C 10.3 °C 1023.4 hPa Calm     88% 0.0 mm 16 W/m2
18:08 12.1 °C 10.2 °C 1023.4 hPa Calm   1.6 km/h 88% 0.0 mm 12 W/m2
18:13 11.9 °C 10.1 °C 1023.4 hPa Calm     89% 0.0 mm 9 W/m2
18:18 11.8 °C 10 °C 1023.4 hPa Calm     89% 0.0 mm 5 W/m2
18:23 11.6 °C 9.8 °C 1023.4 hPa Calm   1.6 km/h 89% 0.0 mm 0 W/m2
18:28 11.4 °C 9.8 °C 1023.4 hPa Calm     90% 0.0 mm 0 W/m2
18:33 11.3 °C 9.7 °C 1023.4 hPa Calm     90% 0.0 mm 0 W/m2
18:38 11.2 °C 9.8 °C 1023.4 hPa Calm     91% 0.0 mm 0 W/m2
18:43 11.1 °C 9.7 °C 1023.4 hPa Calm     91% 0.0 mm 0 W/m2
18:48 10.9 °C 9.5 °C 1023.4 hPa Calm     91% 0.0 mm 0 W/m2
18:53 10.8 °C 9.4 °C 1023.4 hPa Calm     91% 0.0 mm 0 W/m2
18:58 10.7 °C 9.3 °C 1023.4 hPa Calm     91% 0.0 mm 0 W/m2
19:03 10.5 °C 9.3 °C 1023.4 hPa Calm     92% 0.0 mm 0 W/m2
19:08 10.4 °C 9.2 °C 1023.4 hPa Calm     92% 0.0 mm 0 W/m2
19:13 10.4 °C 9.2 °C 1023.4 hPa Calm     92% 0.0 mm 0 W/m2
19:18 10.3 °C 9.2 °C 1023.4 hPa Calm     93% 0.0 mm 0 W/m2
19:23 10.2 °C 9.1 °C 1023.4 hPa Calm     93% 0.0 mm 0 W/m2
19:28 10.1 °C 9 °C 1023.4 hPa Calm     93% 0.0 mm 0 W/m2
19:33 10.1 °C 9 °C 1023.4 hPa Calm     93% 0.0 mm 0 W/m2
19:38 9.9 °C 8.8 °C 1023.4 hPa Calm     93% 0.0 mm 0 W/m2
19:43 9.8 °C 8.7 °C 1023.4 hPa Calm     93% 0.0 mm 0 W/m2
19:48 9.8 °C 8.9 °C 1023.4 hPa Calm     94% 0.0 mm 0 W/m2
19:53 9.8 °C 8.9 °C 1023.0 hPa Calm   3.2 km/h 94% 0.0 mm 0 W/m2
19:58 9.8 °C 8.9 °C 1023.4 hPa Calm   1.6 km/h 94% 0.0 mm 0 W/m2
20:03 9.8 °C 8.9 °C 1023.4 hPa Calm   3.2 km/h 94% 0.0 mm 0 W/m2
20:08 9.7 °C 8.8 °C 1023.4 hPa Calm     94% 0.0 mm 0 W/m2
20:13 9.6 °C 8.7 °C 1023.0 hPa Calm     94% 0.0 mm 0 W/m2
20:18 9.5 °C 8.6 °C 1023.0 hPa Calm     94% 0.0 mm 0 W/m2
20:23 9.4 °C 8.5 °C 1023.0 hPa Calm     94% 0.0 mm 0 W/m2
20:28 9.3 °C 8.4 °C 1023.0 hPa Calm     94% 0.0 mm 0 W/m2
20:33 9.3 °C 8.4 °C 1023.0 hPa SSE 1.4 km/h 1.6 km/h 94% 0.0 mm 0 W/m2
20:38 9.2 °C 8.3 °C 1023.0 hPa Calm     94% 0.0 mm 0 W/m2
20:43 9.1 °C 8.2 °C 1023.0 hPa Calm   1.6 km/h 94% 0.0 mm 0 W/m2
20:49 9.1 °C 8.3 °C 1023.0 hPa Calm     95% 0.0 mm 0 W/m2
20:54 9.1 °C 8.3 °C 1022.7 hPa Calm   1.6 km/h 95% 0.0 mm 0 W/m2
20:59 9 °C 8.2 °C 1022.7 hPa Calm     95% 0.0 mm 0 W/m2
21:04 8.9 °C 8.1 °C 1022.7 hPa Calm     95% 0.0 mm 0 W/m2
21:09 8.8 °C 8 °C 1022.7 hPa Calm     95% 0.0 mm 0 W/m2
21:14 8.7 °C 7.9 °C 1022.7 hPa Calm     95% 0.0 mm 0 W/m2
21:19 8.6 °C 7.8 °C 1022.7 hPa Calm     95% 0.0 mm 0 W/m2
21:24 8.6 °C 7.8 °C 1022.7 hPa Calm     95% 0.0 mm 0 W/m2
21:29 8.5 °C 7.7 °C 1022.7 hPa Calm     95% 0.0 mm 0 W/m2
21:34 8.4 °C 7.6 °C 1022.7 hPa Calm     95% 0.0 mm 0 W/m2
21:39 8.4 °C 7.6 °C 1022.7 hPa Calm     95% 0.0 mm 0 W/m2
21:44 8.4 °C 7.6 °C 1022.7 hPa Calm     95% 0.0 mm 0 W/m2
21:49 8.3 °C 7.5 °C 1022.7 hPa Calm     95% 0.0 mm 0 W/m2
21:54 8.3 °C 7.5 °C 1022.7 hPa Calm     95% 0.0 mm 0 W/m2
21:59 8.3 °C 7.5 °C 1022.7 hPa Calm     95% 0.0 mm 0 W/m2
22:04 8.3 °C 7.5 °C 1022.4 hPa Calm     95% 0.0 mm 0 W/m2
22:09 8.2 °C 7.4 °C 1022.4 hPa Calm     95% 0.0 mm 0 W/m2
22:14 8.2 °C 7.6 °C 1022.4 hPa Calm     96% 0.0 mm 0 W/m2
22:19 8.2 °C 7.6 °C 1022.4 hPa Calm     96% 0.0 mm 0 W/m2
22:24 8.2 °C 7.6 °C 1022.4 hPa Calm     96% 0.0 mm 0 W/m2
22:29 8.1 °C 7.5 °C 1022.4 hPa Calm     96% 0.0 mm 0 W/m2
22:34 8.1 °C 7.3 °C 1022.4 hPa Calm     95% 0.0 mm 0 W/m2
22:39 8 °C 7.4 °C 1022.4 hPa Calm     96% 0.0 mm 0 W/m2
22:44 7.9 °C 7.3 °C 1022.4 hPa Calm     96% 0.0 mm 0 W/m2
22:49 7.9 °C 7.3 °C 1022.4 hPa Calm     96% 0.0 mm 0 W/m2
22:54 7.9 °C 7.3 °C 1022.4 hPa Calm     96% 0.0 mm 0 W/m2
22:59 8 °C 7.4 °C 1022.4 hPa Calm     96% 0.0 mm 0 W/m2
23:04 8.1 °C 7.5 °C 1022.4 hPa Calm     96% 0.0 mm 0 W/m2
23:09 8.2 °C 7.6 °C 1022.4 hPa Calm     96% 0.0 mm 0 W/m2
23:14 8.3 °C 7.7 °C 1022.4 hPa Calm     96% 0.0 mm 0 W/m2
23:19 8.3 °C 7.7 °C 1022.4 hPa Calm     96% 0.0 mm 0 W/m2
23:24 8.2 °C 7.6 °C 1022.4 hPa Calm     96% 0.0 mm 0 W/m2
23:29 8.2 °C 7.6 °C 1022.4 hPa Calm     96% 0.0 mm 0 W/m2
23:34 8.3 °C 7.7 °C 1022.4 hPa Calm     96% 0.0 mm 0 W/m2
23:39 8.4 °C 7.8 °C 1022.4 hPa Calm     96% 0.0 mm 0 W/m2
23:44 8.5 °C 7.9 °C 1022.4 hPa Calm     96% 0.0 mm 0 W/m2
23:49 8.6 °C 8 °C 1022.4 hPa Calm     96% 0.0 mm 0 W/m2
23:54 8.6 °C 8 °C 1022.4 hPa Calm     96% 0.0 mm 0 W/m2
23:59 8.6 °C 8 °C 1022.0 hPa Calm   4.8 km/h 96% 0.0 mm 0 W/m2
Juneau County Weather
Compliments of Weather Underground - 4 mb